Time;durP1;ratioP1;P1;durP2;ratioP2;P2;SDS_P1;SDS_P2;PMS_P1;PMS_P2;Temp;Humidity;BMP_temperature;BMP_pressure;BME280_temperature;BME280_humidity;BME280_pressure;Samples;Min_cycle;Max_cycle;Signal;HPM_P1;HPM_P2
2020/12/06 00:01:53;;;;;;;33.20;15.23;;;;;;;7.35;75.32;94093.84;5058889;28;20048;-64
2020/12/06 00:04:21;;;;;;;29.30;15.13;;;;;;;7.39;75.69;94094.06;5050492;28;20055;-65
2020/12/06 00:06:47;;;;;;;26.98;13.55;;;;;;;7.41;75.62;94095.34;5049677;28;20029;-64
2020/12/06 00:09:15;;;;;;;28.17;14.27;;;;;;;7.39;75.64;94091.41;5049352;28;20021;-64
2020/12/06 00:11:41;;;;;;;27.83;14.25;;;;;;;7.40;75.48;94093.75;5050941;28;20017;-64
2020/12/06 00:14:06;;;;;;;26.63;14.38;;;;;;;7.39;75.47;94094.84;5064955;28;20384;-64
2020/12/06 00:16:31;;;;;;;27.63;13.60;;;;;;;7.42;75.64;94099.56;5058705;28;20067;-64
2020/12/06 00:18:57;;;;;;;27.23;15.45;;;;;;;7.46;75.32;94099.00;5050835;28;20029;-64
2020/12/06 00:21:23;;;;;;;27.23;14.07;;;;;;;7.46;75.55;94102.44;5050289;28;20443;-64
2020/12/06 00:23:49;;;;;;;25.08;13.57;;;;;;;7.47;75.58;94108.50;5050015;28;20484;-65
2020/12/06 00:26:21;;;;;;;25.35;13.70;;;;;;;7.47;75.54;94097.91;5054022;28;20028;-64
2020/12/06 00:28:46;;;;;;;26.80;13.93;;;;;;;7.47;75.63;94100.56;5052045;28;20021;-64
2020/12/06 00:31:12;;;;;;;28.90;12.88;;;;;;;7.46;75.47;94099.00;5074018;28;20033;-64
2020/12/06 00:33:37;;;;;;;28.98;14.73;;;;;;;7.46;75.62;94105.06;5062061;28;20403;-64
2020/12/06 00:36:02;;;;;;;30.95;14.32;;;;;;;7.41;75.75;94105.94;5067219;28;20059;-64
2020/12/06 00:38:28;;;;;;;30.52;14.15;;;;;;;7.42;75.76;94110.16;5066576;28;20040;-64
2020/12/06 00:40:54;;;;;;;29.95;13.90;;;;;;;7.41;75.90;94113.91;5053728;28;20029;-64
2020/12/06 00:43:19;;;;;;;27.23;13.30;;;;;;;7.42;75.65;94109.38;5070365;28;20104;-64
2020/12/06 00:45:45;;;;;;;25.02;12.68;;;;;;;7.46;75.36;94105.06;5072453;28;20033;-63
2020/12/06 00:48:10;;;;;;;25.50;12.75;;;;;;;7.46;75.19;94112.25;5059860;28;20029;-64
2020/12/06 00:50:36;;;;;;;29.42;13.68;;;;;;;7.40;75.37;94109.66;5055185;28;20021;-64
2020/12/06 00:53:01;;;;;;;26.55;13.05;;;;;;;7.41;75.26;94107.81;5054339;28;20499;-63
2020/12/06 00:55:27;;;;;;;24.10;12.50;;;;;;;7.32;75.60;94101.56;5054431;28;20020;-64
2020/12/06 00:57:52;;;;;;;21.42;12.55;;;;;;;7.32;75.46;94094.38;5055532;28;20037;-64
2020/12/06 01:00:18;;;;;;;20.38;11.18;;;;;;;7.34;75.42;94105.50;5053907;28;20090;-64
2020/12/06 01:02:44;;;;;;;23.42;11.98;;;;;;;7.35;75.34;94098.34;5070486;28;20034;-64
2020/12/06 01:05:09;;;;;;;25.45;12.13;;;;;;;7.36;75.24;94089.31;5071145;28;20020;-63
2020/12/06 01:07:37;;;;;;;23.33;12.07;;;;;;;7.36;75.17;94089.31;5052761;28;20025;-63
2020/12/06 01:10:04;;;;;;;32.53;12.15;;;;;;;7.35;75.33;94087.75;5054012;28;20080;-63
2020/12/06 01:12:30;;;;;;;19.73;11.07;;;;;;;7.38;74.98;94093.25;5070457;28;20041;-63
2020/12/06 01:14:56;;;;;;;26.58;12.90;;;;;;;7.35;75.06;94099.13;5064197;28;20032;-63
2020/12/06 01:17:22;;;;;;;22.95;12.07;;;;;;;7.30;75.12;94088.59;5072670;28;20036;-63
2020/12/06 01:19:47;;;;;;;24.98;12.07;;;;;;;7.30;75.24;94085.16;5073591;28;20388;-63
2020/12/06 01:22:12;;;;;;;26.35;12.63;;;;;;;7.27;75.48;94091.81;5073574;28;20039;-63
2020/12/06 01:24:38;;;;;;;27.92;12.98;;;;;;;7.28;75.28;94085.44;5071783;28;20473;-64
2020/12/06 01:27:03;;;;;;;24.23;12.45;;;;;;;7.26;75.31;94092.88;5055121;28;20120;-64
2020/12/06 01:29:29;;;;;;;26.38;13.38;;;;;;;7.21;75.62;94093.75;5060434;28;20029;-64
2020/12/06 01:31:54;;;;;;;22.25;12.70;;;;;;;7.20;75.61;94094.81;5051260;28;20029;-64
2020/12/06 01:34:20;;;;;;;21.65;11.77;;;;;;;7.18;75.78;94088.22;5058531;28;20023;-64
2020/12/06 01:36:49;;;;;;;33.15;12.35;;;;;;;7.16;75.75;94095.66;5056914;28;20083;-65
2020/12/06 01:39:14;;;;;;;23.75;11.85;;;;;;;7.14;75.81;94092.53;5054189;28;20036;-64
2020/12/06 01:41:40;;;;;;;18.80;10.45;;;;;;;7.14;75.91;94087.22;5052824;28;20028;-65
2020/12/06 01:44:05;;;;;;;34.28;13.30;;;;;;;7.15;75.48;94094.09;5051221;28;20509;-64
2020/12/06 01:46:31;;;;;;;22.08;12.40;;;;;;;7.14;75.44;94088.00;5053324;28;20027;-65
2020/12/06 01:48:57;;;;;;;28.20;12.20;;;;;;;7.14;75.04;94087.22;5060138;28;20552;-65
2020/12/06 01:51:23;;;;;;;27.70;12.68;;;;;;;7.13;75.61;94085.66;5072817;28;20066;-65
2020/12/06 01:53:51;;;;;;;22.83;13.10;;;;;;;7.09;75.77;94082.00;5071765;28;20393;-64
2020/12/06 01:56:17;;;;;;;28.20;13.40;;;;;;;7.08;75.75;94088.34;5071205;28;20024;-64
2020/12/06 01:58:43;;;;;;;22.27;12.27;;;;;;;7.05;75.76;94078.34;5071427;28;20035;-65
2020/12/06 02:01:10;;;;;;;23.98;12.73;;;;;;;7.05;75.71;94083.63;5072798;28;20040;-65
2020/12/06 02:03:36;;;;;;;23.13;11.65;;;;;;;7.04;75.51;94080.19;5072660;28;20380;-65
2020/12/06 02:06:03;;;;;;;22.13;11.50;;;;;;;7.02;75.44;94075.19;5071346;28;20031;-65
2020/12/06 02:08:29;;;;;;;22.77;12.02;;;;;;;7.03;75.22;94082.06;5067494;28;20036;-64
2020/12/06 02:10:54;;;;;;;23.88;12.43;;;;;;;7.05;75.30;94073.03;5052627;28;20058;-64
2020/12/06 02:13:21;;;;;;;28.02;12.18;;;;;;;7.05;75.43;94075.69;5052299;28;20025;-64
2020/12/06 02:15:47;;;;;;;22.77;11.73;;;;;;;7.04;75.20;94077.53;5066634;28;20055;-64
2020/12/06 02:18:12;;;;;;;25.77;11.95;;;;;;;7.04;75.43;94085.47;5061263;28;20024;-64
2020/12/06 02:20:38;;;;;;;20.92;11.38;;;;;;;7.03;75.32;94087.34;5058511;28;20017;-64
2020/12/06 02:23:04;;;;;;;18.85;11.25;;;;;;;7.01;75.33;94078.91;5052272;28;20027;-64
2020/12/06 02:25:34;;;;;;;22.05;11.35;;;;;;;6.97;75.42;94072.59;5054577;28;20025;-64
2020/12/06 02:28:00;;;;;;;21.98;11.43;;;;;;;6.97;75.66;94077.88;5071105;28;20480;-63
2020/12/06 02:30:26;;;;;;;20.45;11.05;;;;;;;6.94;75.92;94073.16;5072202;28;20044;-64
2020/12/06 02:32:51;;;;;;;25.05;12.18;;;;;;;6.96;76.16;94073.69;5067562;28;20028;-63
2020/12/06 02:35:16;;;;;;;20.63;11.55;;;;;;;6.96;75.97;94065.72;5067796;28;20086;-63
2020/12/06 02:37:42;;;;;;;22.40;11.52;;;;;;;6.94;75.95;94073.16;5055994;28;20024;-64
2020/12/06 02:40:07;;;;;;;21.08;10.68;;;;;;;6.94;76.04;94073.16;5067789;28;20460;-63
2020/12/06 02:42:33;;;;;;;22.83;11.85;;;;;;;6.98;76.03;94076.81;5058724;28;20412;-64
2020/12/06 02:44:58;;;;;;;20.73;10.85;;;;;;;6.96;76.16;94078.16;5072430;28;20024;-64
2020/12/06 02:47:23;;;;;;;24.63;11.20;;;;;;;6.95;76.13;94069.44;5071075;28;20032;-64
2020/12/06 02:49:49;;;;;;;20.60;11.85;;;;;;;6.95;76.33;94069.44;5071793;28;20028;-64
2020/12/06 02:52:14;;;;;;;23.85;11.50;;;;;;;6.95;76.20;94064.13;5057811;28;20412;-64
2020/12/06 02:54:40;;;;;;;24.17;12.57;;;;;;;6.97;76.11;94066.50;5051788;28;20025;-64
2020/12/06 02:57:05;;;;;;;21.20;11.63;;;;;;;6.96;75.92;94060.44;5061588;28;20028;-64
2020/12/06 02:59:31;;;;;;;22.92;10.88;;;;;;;6.97;76.01;94066.50;5071545;28;20074;-64
2020/12/06 03:01:57;;;;;;;21.50;10.98;;;;;;;7.00;75.95;94064.09;5071642;28;20032;-64
2020/12/06 03:04:22;;;;;;;23.88;11.35;;;;;;;6.99;75.92;94070.44;5071534;28;20035;-64
2020/12/06 03:06:48;;;;;;;22.83;10.50;;;;;;;6.99;75.95;94064.34;5070197;28;20021;-64
2020/12/06 03:09:13;;;;;;;21.75;10.50;;;;;;;7.02;75.92;94069.88;5065298;28;20025;-64
2020/12/06 03:11:39;;;;;;;19.35;10.60;;;;;;;7.03;75.74;94060.84;5051346;28;20487;-63
2020/12/06 03:14:05;;;;;;;23.17;11.50;;;;;;;7.05;75.97;94049.19;5057024;28;20094;-62
2020/12/06 03:16:31;;;;;;;24.48;11.35;;;;;;;7.09;75.79;94058.91;5069427;28;20029;-62
2020/12/06 03:18:56;;;;;;;21.95;10.63;;;;;;;7.11;75.62;94051.47;5070289;28;20476;-63
2020/12/06 03:21:21;;;;;;;18.65;10.90;;;;;;;7.15;75.71;94064.94;5070915;28;20077;-63
2020/12/06 03:23:47;;;;;;;17.88;10.40;;;;;;;7.15;75.56;94052.47;5052631;28;20119;-63
2020/12/06 03:26:12;;;;;;;18.92;10.10;;;;;;;7.16;75.61;94058.56;5049801;28;20025;-63
2020/12/06 03:28:38;;;;;;;21.15;10.35;;;;;;;7.17;75.67;94057.50;5050954;28;20028;-63
2020/12/06 03:31:03;;;;;;;16.83;10.27;;;;;;;7.21;75.42;94055.84;5054278;28;20024;-64
2020/12/06 03:33:28;;;;;;;23.25;10.27;;;;;;;7.24;75.29;94052.63;5052677;28;20048;-63
2020/12/06 03:35:54;;;;;;;18.33;9.45;;;;;;;7.27;74.99;94049.41;5070520;28;20082;-63
2020/12/06 03:38:19;;;;;;;19.48;9.32;;;;;;;7.28;75.15;94052.84;5064043;28;20025;-63
2020/12/06 03:40:45;;;;;;;19.10;9.82;;;;;;;7.28;74.89;94053.63;5050641;28;20029;-64
2020/12/06 03:43:10;;;;;;;17.92;8.93;;;;;;;7.27;74.89;94046.75;5058715;28;20448;-63
2020/12/06 03:45:36;;;;;;;19.48;9.38;;;;;;;7.30;74.64;94051.47;5063178;28;20094;-63
2020/12/06 03:48:01;;;;;;;22.77;9.82;;;;;;;7.31;74.67;94053.06;5050805;28;20140;-63
2020/12/06 03:50:26;;;;;;;17.85;9.45;;;;;;;7.35;74.47;94064.66;5049843;28;20032;-63
2020/12/06 03:52:52;;;;;;;16.73;9.43;;;;;;;7.37;74.61;94054.56;5049295;28;20041;-63
2020/12/06 03:55:17;;;;;;;17.30;8.30;;;;;;;7.39;74.51;94052.41;5053829;28;20020;-63
2020/12/06 03:57:43;;;;;;;18.23;10.23;;;;;;;7.43;74.13;94058.72;5064037;28;20029;-63
2020/12/06 04:00:09;;;;;;;17.02;9.07;;;;;;;7.46;74.00;94061.88;5075616;28;20063;-64
2020/12/06 04:02:35;;;;;;;17.27;8.60;;;;;;;7.46;74.13;94064.50;5077461;28;20132;-63
2020/12/06 04:05:00;;;;;;;15.15;8.95;;;;;;;7.46;74.12;94059.22;5077626;28;20052;-63
2020/12/06 04:07:26;;;;;;;15.50;8.32;;;;;;;7.47;73.90;94055.47;5076162;28;20047;-63
2020/12/06 04:09:51;;;;;;;18.25;8.32;;;;;;;7.50;74.03;94057.56;5063534;28;20062;-63
2020/12/06 04:12:17;;;;;;;16.80;8.52;;;;;;;7.50;73.94;94053.03;5067960;28;20039;-63
2020/12/06 04:14:42;;;;;;;17.83;9.13;;;;;;;7.50;74.14;94052.25;5077546;28;20021;-63
2020/12/06 04:17:08;;;;;;;16.10;7.68;;;;;;;7.50;73.96;94055.69;5075791;28;20029;-65
2020/12/06 04:19:33;;;;;;;15.60;7.72;;;;;;;7.49;74.04;94053.31;5066296;28;20474;-65
2020/12/06 04:21:59;;;;;;;13.68;8.32;;;;;;;7.52;74.07;94042.16;5057539;28;20063;-64
2020/12/06 04:24:24;;;;;;;17.23;8.48;;;;;;;7.54;74.06;94054.03;5055949;28;20115;-64
2020/12/06 04:26:50;;;;;;;18.13;7.97;;;;;;;7.52;73.93;94055.41;5057293;28;20107;-64
2020/12/06 04:29:16;;;;;;;15.25;8.35;;;;;;;7.57;73.99;94042.06;5057571;28;20039;-64
2020/12/06 04:31:41;;;;;;;17.13;8.45;;;;;;;7.60;73.83;94046.78;5077274;28;20115;-64
2020/12/06 04:34:06;;;;;;;14.80;7.78;;;;;;;7.61;73.93;94048.34;5077219;28;20032;-64
2020/12/06 04:36:32;;;;;;;22.08;7.90;;;;;;;7.61;73.88;94048.34;5073061;28;20530;-64
2020/12/06 04:38:58;;;;;;;13.07;7.07;;;;;;;7.63;73.66;94040.91;5073051;28;20047;-64
2020/12/06 04:41:25;;;;;;;15.55;7.38;;;;;;;7.61;73.56;94033.25;5060595;28;20036;-65
2020/12/06 04:43:51;;;;;;;12.55;6.75;;;;;;;7.63;73.56;94031.09;5062746;28;20036;-64
2020/12/06 04:46:18;;;;;;;15.48;7.50;;;;;;;7.63;73.50;94030.28;5057435;28;20024;-64
2020/12/06 04:49:20;;;;;;;17.48;8.18;;;;;;;7.66;73.39;94047.50;5064692;28;20028;-64
2020/12/06 04:51:53;;;;;;;15.63;8.52;;;;;;;7.64;73.63;94042.47;5075462;28;20076;-64
2020/12/06 04:54:20;;;;;;;17.88;7.75;;;;;;;7.63;73.76;94049.66;5076167;28;20032;-65
2020/12/06 04:56:50;;;;;;;16.13;8.23;;;;;;;7.63;73.94;94046.19;5057138;28;20029;-64
2020/12/06 04:59:19;;;;;;;19.77;9.43;;;;;;;7.64;74.01;94053.88;5073629;28;20054;-63
2020/12/06 05:01:48;;;;;;;14.82;7.65;;;;;;;7.67;74.10;94054.38;5061704;28;20037;-63
2020/12/06 05:04:15;;;;;;;17.02;9.10;;;;;;;7.69;73.86;94055.66;5073751;28;20037;-64
2020/12/06 05:06:44;;;;;;;16.75;8.10;;;;;;;7.66;74.18;94056.25;5077312;28;20036;-64
2020/12/06 05:09:16;;;;;;;17.35;7.68;;;;;;;7.65;73.83;94065.28;5066723;28;20036;-63
2020/12/06 05:11:44;;;;;;;15.63;7.80;;;;;;;7.62;74.00;94071.16;5061126;28;20025;-64
2020/12/06 05:14:10;;;;;;;17.95;8.73;;;;;;;7.64;73.82;94069.00;5052334;28;20061;-63
2020/12/06 05:16:38;;;;;;;16.13;7.13;;;;;;;7.64;74.09;94075.09;5052105;28;20503;-64
2020/12/06 05:19:04;;;;;;;13.75;8.02;;;;;;;7.68;73.95;94064.69;5067127;28;20056;-64
2020/12/06 05:21:37;;;;;;;14.43;7.35;;;;;;;7.67;73.86;94065.00;5070962;28;20412;-63
2020/12/06 05:24:03;;;;;;;13.20;7.20;;;;;;;7.63;74.22;94067.41;5073042;28;20146;-63
2020/12/06 05:26:30;;;;;;;18.92;8.55;;;;;;;7.67;74.35;94062.34;5068774;28;20040;-63
2020/12/06 05:28:56;;;;;;;17.02;8.40;;;;;;;7.63;74.48;94068.22;5059225;28;20044;-64
2020/12/06 05:31:22;;;;;;;17.40;8.25;;;;;;;7.65;74.30;94054.66;5051813;28;20109;-64
2020/12/06 05:33:48;;;;;;;16.10;8.73;;;;;;;7.66;74.43;94056.25;5058839;28;20028;-64
2020/12/06 05:36:14;;;;;;;14.98;7.50;;;;;;;7.67;73.94;94067.63;5065767;28;20033;-64
2020/12/06 05:38:40;;;;;;;14.85;6.88;;;;;;;7.64;73.84;94071.66;5073041;28;20463;-64
2020/12/06 05:41:07;;;;;;;15.38;6.85;;;;;;;7.65;73.60;94075.88;5073184;28;20106;-64
2020/12/06 05:43:33;;;;;;;15.70;7.75;;;;;;;7.69;73.55;94068.13;5072573;28;20032;-64
2020/12/06 05:46:16;;;;;;;15.63;6.47;;;;;;;7.71;73.93;94079.25;5071642;28;20454;-64
2020/12/06 05:48:43;;;;;;;10.13;6.05;;;;;;;7.71;73.87;94090.66;5071287;28;20031;-64
2020/12/06 05:51:10;;;;;;;12.32;6.78;;;;;;;7.72;73.87;94092.22;5072486;28;20044;-64
2020/12/06 05:53:36;;;;;;;14.02;6.63;;;;;;;7.77;73.71;94097.44;5072616;28;20036;-63
2020/12/06 05:56:07;;;;;;;14.20;7.47;;;;;;;7.82;73.91;94092.06;5072623;28;20021;-64
2020/12/06 05:58:33;;;;;;;14.55;6.43;;;;;;;7.83;73.89;94098.94;5072661;28;20025;-65
2020/12/06 06:01:02;;;;;;;16.95;7.65;;;;;;;7.89;73.68;94096.22;5071195;28;20043;-64
2020/12/06 06:03:32;;;;;;;14.43;7.70;;;;;;;7.93;73.74;94107.84;5070947;28;20024;-64
2020/12/06 06:06:01;;;;;;;15.07;7.63;;;;;;;7.95;73.77;94106.47;5061766;28;20025;-63
2020/12/06 06:08:28;;;;;;;15.65;8.32;;;;;;;7.95;74.11;94098.50;5052170;28;20013;-63
2020/12/06 06:11:20;;;;;;;15.38;7.22;;;;;;;7.95;74.03;94100.38;5052174;28;20027;-63
2020/12/06 06:13:51;;;;;;;20.80;7.55;;;;;;;7.92;74.01;94095.66;5047480;28;20060;-64
2020/12/06 06:16:19;;;;;;;14.53;7.70;;;;;;;7.95;74.17;94093.19;5056746;28;20033;-63
2020/12/06 06:18:46;;;;;;;18.90;9.15;;;;;;;7.94;74.00;94104.91;5055936;28;20278;-63
2020/12/06 06:21:12;;;;;;;19.33;9.45;;;;;;;7.88;74.42;94089.34;5050851;28;20032;-63
2020/12/06 06:23:38;;;;;;;20.50;8.25;;;;;;;7.93;74.21;94094.56;5063256;28;20039;-63
2020/12/06 06:26:04;;;;;;;14.48;7.63;;;;;;;7.97;74.18;94103.53;5058195;28;20031;-63
2020/12/06 06:28:30;;;;;;;17.13;9.68;;;;;;;7.99;74.06;94101.38;5066266;28;20028;-64
2020/12/06 06:30:56;;;;;;;20.33;8.77;;;;;;;8.05;73.75;94100.22;5072023;28;20115;-63
2020/12/06 06:33:21;;;;;;;18.67;8.52;;;;;;;8.11;73.45;94093.72;5059733;28;20086;-62
2020/12/06 06:35:47;;;;;;;18.77;8.63;;;;;;;8.08;73.41;94099.63;5065099;28;20028;-63
2020/12/06 06:38:13;;;;;;;12.77;7.70;;;;;;;8.14;73.33;94101.13;5060717;28;20032;-64
2020/12/06 06:40:39;;;;;;;18.83;8.40;;;;;;;8.19;72.72;94094.94;5055161;28;20028;-63
2020/12/06 06:43:05;;;;;;;18.00;8.88;;;;;;;8.20;72.52;94085.88;5061982;28;20029;-63
2020/12/06 06:45:44;;;;;;;15.95;8.40;;;;;;;8.19;71.63;94098.38;5051579;28;20090;-63
2020/12/06 06:48:16;;;;;;;16.13;7.63;;;;;;;8.26;71.18;94092.69;5049837;28;20031;-63
2020/12/06 06:50:42;;;;;;;17.27;8.20;;;;;;;8.35;70.52;94087.50;5051559;28;20021;-64
2020/12/06 06:53:08;;;;;;;16.17;7.47;;;;;;;8.45;70.31;94097.97;5061363;28;20392;-63
2020/12/06 06:55:54;;;;;;;14.65;8.48;;;;;;;8.52;70.02;94100.22;5071792;28;20028;-64
2020/12/06 06:58:23;;;;;;;16.38;8.20;;;;;;;8.63;69.62;94099.75;5070926;28;20029;-64
2020/12/06 07:00:49;;;;;;;18.27;8.10;;;;;;;8.74;69.21;94099.56;5071275;28;20107;-64
2020/12/06 07:03:14;;;;;;;18.70;8.48;;;;;;;8.84;68.84;94102.03;5069538;28;20450;-63
2020/12/06 07:05:40;;;;;;;15.98;8.07;;;;;;;8.89;68.52;94101.91;5056314;28;20021;-64
2020/12/06 07:08:11;;;;;;;17.50;8.40;;;;;;;8.95;68.28;94097.28;5049603;28;20496;-63
2020/12/06 07:10:39;;;;;;;15.93;7.87;;;;;;;9.04;68.15;94106.94;5049934;28;20115;-64
2020/12/06 07:13:06;;;;;;;18.23;8.25;;;;;;;9.12;67.63;94094.00;5050900;28;20279;-64
2020/12/06 07:15:32;;;;;;;18.05;8.23;;;;;;;9.20;67.41;94090.69;5050650;28;20028;-64
2020/12/06 07:17:58;;;;;;;16.88;8.95;;;;;;;9.25;67.14;94090.56;5051876;28;20116;-64
2020/12/06 07:20:25;;;;;;;20.23;10.88;;;;;;;9.38;67.04;94092.41;5060238;28;20058;-64
2020/12/06 07:22:54;;;;;;;19.08;9.52;;;;;;;9.42;66.35;94088.06;5070710;28;20024;-64
2020/12/06 07:25:21;;;;;;;15.80;8.07;;;;;;;9.38;66.67;94081.78;5069471;28;20481;-64
2020/12/06 07:27:47;;;;;;;14.90;8.68;;;;;;;9.41;66.30;94080.38;5058204;28;20029;-65
2020/12/06 07:30:15;;;;;;;13.85;9.15;;;;;;;9.47;66.69;94076.53;5063953;28;20093;-64
2020/12/06 07:32:41;;;;;;;19.13;9.63;;;;;;;9.50;66.16;94078.56;5069626;28;20103;-65
2020/12/06 07:35:09;;;;;;;19.58;8.93;;;;;;;9.56;66.09;94076.59;5070173;28;20102;-65
2020/12/06 07:37:35;;;;;;;16.25;8.27;;;;;;;9.59;65.84;94081.31;5067529;28;20025;-65
2020/12/06 07:40:06;;;;;;;16.90;8.43;;;;;;;9.61;65.92;94081.81;5070434;28;20020;-64
2020/12/06 07:42:32;;;;;;;15.82;8.52;;;;;;;9.71;65.72;94083.44;5070098;28;20028;-64
2020/12/06 07:44:59;;;;;;;13.75;8.48;;;;;;;9.75;65.49;94087.06;5068774;28;20024;-64
2020/12/06 07:47:25;;;;;;;14.35;7.50;;;;;;;9.74;65.42;94083.63;5070303;28;20085;-65
2020/12/06 07:49:56;;;;;;;15.82;8.60;;;;;;;9.79;65.50;94091.50;5066873;28;20025;-64
2020/12/06 07:52:29;;;;;;;17.10;8.50;;;;;;;9.90;65.27;94096.59;5050451;28;20045;-63
2020/12/06 07:55:01;;;;;;;16.90;7.25;;;;;;;9.96;66.48;94082.84;5058541;28;20025;-62
2020/12/06 07:57:52;;;;;;;15.98;8.30;;;;;;;10.10;65.95;94084.66;5054491;28;20051;-64
2020/12/06 08:00:22;;;;;;;17.98;8.63;;;;;;;10.24;65.34;94078.16;5063284;28;20056;-63
2020/12/06 08:02:58;;;;;;;14.63;8.05;;;;;;;10.37;64.69;94083.75;5060624;28;20406;-62
2020/12/06 08:05:27;;;;;;;17.20;8.63;;;;;;;10.49;64.75;94080.50;5057669;28;20079;-62
2020/12/06 08:07:58;;;;;;;18.42;9.13;;;;;;;10.61;64.41;94089.50;5062397;28;20396;-62
2020/12/06 08:10:25;;;;;;;19.55;9.70;;;;;;;10.72;63.82;94089.22;5056623;28;20025;-62
2020/12/06 08:12:53;;;;;;;23.77;9.25;;;;;;;10.79;63.07;94090.38;5055594;28;20029;-63
2020/12/06 08:15:23;;;;;;;16.05;8.57;;;;;;;10.81;62.73;94076.72;5059565;28;20090;-63
2020/12/06 08:17:53;;;;;;;14.80;8.25;;;;;;;10.83;62.55;94079.88;5064702;28;20028;-63
2020/12/06 08:20:24;;;;;;;16.35;8.85;;;;;;;10.83;62.06;94075.31;5055862;28;20531;-63
2020/12/06 08:22:53;;;;;;;21.25;11.65;;;;;;;10.90;61.47;94079.41;5062735;28;20448;-63
2020/12/06 08:25:30;;;;;;;21.10;11.80;;;;;;;10.92;62.06;94080.66;5057339;28;20039;-64
2020/12/06 08:27:57;;;;;;;21.42;10.75;;;;;;;10.97;62.40;94080.53;5060300;28;20095;-63
2020/12/06 08:30:25;;;;;;;18.67;10.48;;;;;;;10.96;62.57;94086.97;5059107;28;20105;-63
2020/12/06 08:32:54;;;;;;;18.23;10.48;;;;;;;10.94;62.11;94075.81;5055453;28;20017;-63
2020/12/06 08:35:35;;;;;;;19.95;9.73;;;;;;;10.92;61.81;94072.66;5056995;28;20376;-64
2020/12/06 08:38:00;;;;;;;20.55;10.55;;;;;;;10.98;61.32;94073.31;5061488;28;20023;-63
2020/12/06 08:40:26;;;;;;;22.45;10.95;;;;;;;10.91;61.65;94072.97;5053750;28;20025;-63
2020/12/06 08:42:58;;;;;;;22.17;11.45;;;;;;;10.79;61.96;94068.25;5055394;28;20028;-62
2020/12/06 08:45:24;;;;;;;21.77;11.25;;;;;;;10.75;62.29;94068.06;5049939;28;20048;-62
2020/12/06 08:47:49;;;;;;;26.70;10.82;;;;;;;10.68;62.63;94067.72;5058534;28;20024;-63
2020/12/06 08:50:16;;;;;;;21.25;10.52;;;;;;;10.63;62.43;94055.31;5065187;28;20106;-62
2020/12/06 08:52:42;;;;;;;20.42;10.20;;;;;;;10.64;62.53;94056.09;5062019;28;20044;-62
2020/12/06 08:55:29;;;;;;;20.55;10.52;;;;;;;10.68;62.53;94049.06;5069271;28;20047;-63
2020/12/06 08:57:55;;;;;;;18.77;10.00;;;;;;;10.68;61.96;94061.63;5060193;28;20025;-63
2020/12/06 09:00:21;;;;;;;18.40;10.30;;;;;;;10.62;62.54;94064.44;5062771;28;20033;-63
2020/12/06 09:02:46;;;;;;;20.33;11.05;;;;;;;10.66;62.42;94066.47;5052878;28;20496;-64
2020/12/06 09:05:12;;;;;;;19.42;10.98;;;;;;;10.62;63.12;94043.09;5053088;28;20024;-63
2020/12/06 09:07:41;;;;;;;20.70;11.80;;;;;;;10.61;62.59;94046.06;5054877;28;20066;-63
2020/12/06 09:10:07;;;;;;;22.55;10.82;;;;;;;10.57;62.90;94053.13;5052862;28;20059;-63
2020/12/06 09:12:37;;;;;;;17.08;10.15;;;;;;;10.57;62.81;94051.22;5067497;28;20031;-63
2020/12/06 09:15:04;;;;;;;19.38;10.52;;;;;;;10.57;63.53;94048.56;5071293;28;20137;-63
2020/12/06 09:17:30;;;;;;;21.25;11.05;;;;;;;10.53;63.65;94044.94;5068128;28;20035;-63
2020/12/06 09:19:55;;;;;;;21.25;11.07;;;;;;;10.49;63.87;94046.66;5069847;28;20473;-66
2020/12/06 09:22:21;;;;;;;23.10;10.52;;;;;;;10.42;63.58;94040.97;5057381;28;20021;-64
2020/12/06 09:24:46;;;;;;;17.92;9.07;;;;;;;10.43;62.96;94037.22;5062585;28;20028;-64
2020/12/06 09:27:12;;;;;;;24.13;10.27;;;;;;;10.45;63.66;94019.03;5054747;28;20078;-64
2020/12/06 09:29:37;;;;;;;25.63;11.02;;;;;;;10.46;62.98;94014.50;5064016;28;20024;-63
2020/12/06 09:32:03;;;;;;;21.42;10.73;;;;;;;10.46;63.18;94023.25;5058538;28;20044;-63
2020/12/06 09:34:28;;;;;;;17.17;10.13;;;;;;;10.48;63.02;94010.41;5066722;28;20452;-64
2020/12/06 09:36:53;;;;;;;18.55;10.48;;;;;;;10.47;62.99;94002.75;5069141;28;20024;-64
2020/12/06 09:39:19;;;;;;;26.52;9.68;;;;;;;10.48;62.47;94012.31;5056131;28;20028;-64
2020/12/06 09:41:47;;;;;;;19.27;9.35;;;;;;;10.57;62.15;94010.47;5053695;28;20082;-64
2020/12/06 09:44:13;;;;;;;19.95;11.48;;;;;;;10.67;62.22;94007.53;5060380;28;20103;-64
2020/12/06 09:46:38;;;;;;;15.93;9.40;;;;;;;10.74;61.99;94004.41;5057450;28;20166;-63
2020/12/06 09:49:04;;;;;;;26.00;11.80;;;;;;;10.71;62.90;94002.38;5050423;28;20033;-64
2020/12/06 09:51:29;;;;;;;19.48;12.95;;;;;;;10.69;63.36;93991.22;5051335;28;20457;-63
2020/12/06 09:53:55;;;;;;;23.88;13.40;;;;;;;10.70;63.22;93992.78;5053090;28;20044;-63
2020/12/06 09:56:28;;;;;;;25.13;13.38;;;;;;;10.62;63.50;93979.13;5051181;28;20044;-64
2020/12/06 09:58:54;;;;;;;23.95;13.18;;;;;;;10.59;63.80;93985.06;5053189;28;20452;-63
2020/12/06 10:01:20;;;;;;;21.65;11.93;;;;;;;10.64;64.13;93986.81;5052462;28;20116;-63
2020/12/06 10:03:46;;;;;;;22.15;11.70;;;;;;;10.54;63.73;93989.75;5051110;28;20032;-64
2020/12/06 10:06:11;;;;;;;24.58;11.27;;;;;;;10.62;63.35;93978.34;5052617;28;20053;-63
2020/12/06 10:08:37;;;;;;;24.48;12.60;;;;;;;10.57;63.75;93970.50;5052094;28;20021;-63
2020/12/06 10:11:02;;;;;;;26.88;13.73;;;;;;;10.60;64.14;93968.00;5052131;28;20352;-63
2020/12/06 10:13:28;;;;;;;20.45;11.35;;;;;;;10.63;63.96;93961.25;5050789;28;20045;-63
2020/12/06 10:15:53;;;;;;;18.05;10.23;;;;;;;10.67;62.98;93964.09;5053542;28;20498;-64
2020/12/06 10:18:19;;;;;;;30.70;12.63;;;;;;;10.61;63.55;93955.44;5050834;28;20028;-63
2020/12/06 10:20:44;;;;;;;21.98;11.77;;;;;;;10.63;64.23;93954.03;5051093;28;20029;-63
2020/12/06 10:23:10;;;;;;;24.00;12.88;;;;;;;10.70;64.49;93964.25;5054591;28;20060;-63
2020/12/06 10:25:35;;;;;;;23.38;12.50;;;;;;;10.74;63.91;93948.41;5051056;28;20032;-63
2020/12/06 10:28:01;;;;;;;26.23;12.70;;;;;;;10.71;64.07;93938.38;5054356;28;20028;-64
2020/12/06 10:30:26;;;;;;;26.50;12.40;;;;;;;10.79;63.99;93949.06;5053765;28;20394;-64
2020/12/06 10:32:52;;;;;;;25.20;13.45;;;;;;;10.80;64.00;93942.59;5055862;28;20087;-64
2020/12/06 10:35:17;;;;;;;23.15;12.93;;;;;;;10.81;64.08;93941.53;5050746;28;20070;-63
2020/12/06 10:37:42;;;;;;;26.67;12.60;;;;;;;10.74;64.76;93933.19;5052577;28;20025;-66
2020/12/06 10:40:08;;;;;;;25.52;13.05;;;;;;;10.83;64.29;93931.34;5051290;28;20450;-65
2020/12/06 10:42:33;;;;;;;30.02;12.70;;;;;;;10.90;63.43;93941.53;5052291;28;20113;-64
2020/12/06 10:44:59;;;;;;;21.55;11.90;;;;;;;10.93;63.11;93940.91;5050254;28;20059;-64
2020/12/06 10:47:24;;;;;;;22.83;12.35;;;;;;;11.00;63.14;93938.56;5053100;28;20027;-64
2020/12/06 10:49:50;;;;;;;28.13;12.57;;;;;;;11.01;63.18;93937.47;5063647;28;20023;-64
2020/12/06 10:52:15;;;;;;;24.55;11.68;;;;;;;11.11;63.06;93927.56;5051571;28;20044;-64
2020/12/06 10:54:41;;;;;;;21.83;10.38;;;;;;;11.16;61.87;93930.88;5050375;28;20060;-63
2020/12/06 10:57:07;;;;;;;20.42;11.52;;;;;;;11.29;61.61;93929.13;5060383;28;20025;-64
2020/12/06 10:59:34;;;;;;;18.67;10.30;;;;;;;11.40;61.12;93930.38;5050684;28;20029;-63
2020/12/06 11:02:00;;;;;;;16.33;8.50;;;;;;;11.51;60.09;93930.06;5068044;28;20086;-64
2020/12/06 11:04:25;;;;;;;19.13;9.88;;;;;;;11.61;59.27;93935.06;5070673;28;20024;-64
2020/12/06 11:06:51;;;;;;;27.30;12.25;;;;;;;11.70;58.77;93932.38;5054633;28;20108;-64
2020/12/06 11:09:16;;;;;;;38.03;18.10;;;;;;;11.77;58.62;93925.44;5051142;28;20060;-64
2020/12/06 11:11:42;;;;;;;29.17;13.90;;;;;;;11.88;57.70;93922.44;5050836;28;20029;-64
2020/12/06 11:14:07;;;;;;;25.88;13.02;;;;;;;11.93;58.14;93904.38;5059707;28;20029;-66
2020/12/06 11:16:33;;;;;;;21.02;11.40;;;;;;;11.99;57.30;93907.66;5070597;28;20435;-65
2020/12/06 11:18:58;;;;;;;20.45;10.27;;;;;;;11.99;57.53;93905.78;5053250;28;20033;-63
2020/12/06 11:21:24;;;;;;;23.35;12.05;;;;;;;12.00;57.46;93891.31;5061582;28;20079;-64
2020/12/06 11:23:49;;;;;;;24.25;13.25;;;;;;;11.86;57.19;93901.38;5062830;28;20401;-64
2020/12/06 11:26:16;;;;;;;23.00;12.23;;;;;;;11.86;57.73;93890.69;5050364;28;20028;-62